Time;durP1;ratioP1;P1;durP2;ratioP2;P2;SDS_P1;SDS_P2;PMS_P1;PMS_P2;Temp;Humidity;BMP_temperature;BMP_pressure;BME280_temperature;BME280_humidity;BME280_pressure;Samples;Min_cycle;Max_cycle;Signal;HPM_P1;HPM_P2
2022/07/19 00:00:46;;;;;;;6.32;3.40;;;;;;;-143.85;100.00;56815.28;5110294;28;20069;-59
2022/07/19 00:03:16;;;;;;;6.63;3.17;;;;;;;-143.85;100.00;56815.28;5110588;28;20055;-59
2022/07/19 00:05:45;;;;;;;6.20;3.75;;;;;;;-143.85;100.00;56815.28;5109409;28;20146;-59
2022/07/19 00:08:14;;;;;;;7.68;3.90;;;;;;;-143.85;100.00;56815.28;5110367;28;20214;-58
2022/07/19 00:10:55;;;;;;;7.07;3.55;;;;;;;-143.85;100.00;56815.28;5110183;28;20510;-58
2022/07/19 00:13:25;;;;;;;5.13;3.70;;;;;;;-143.85;100.00;56815.28;5109886;28;20058;-59
2022/07/19 00:16:01;;;;;;;7.43;3.53;;;;;;;-143.85;100.00;56815.28;5109332;28;20051;-59
2022/07/19 00:18:29;;;;;;;7.10;3.65;;;;;;;-143.85;100.00;56815.28;5109923;28;20063;-59
2022/07/19 00:21:04;;;;;;;5.47;3.72;;;;;;;-143.85;100.00;56815.28;5106762;28;20052;-59
2022/07/19 00:23:31;;;;;;;7.70;4.28;;;;;;;-143.85;100.00;56815.28;5110782;28;20378;-59
2022/07/19 00:26:02;;;;;;;6.22;3.30;;;;;;;-143.85;100.00;56815.28;5113911;28;20058;-58
2022/07/19 00:28:31;;;;;;;8.43;3.85;;;;;;;-143.85;100.00;56815.28;5114083;28;20051;-59
2022/07/19 00:30:58;;;;;;;6.82;3.78;;;;;;;-143.85;100.00;56815.28;5113684;28;20083;-59
2022/07/19 00:33:28;;;;;;;7.78;3.42;;;;;;;-143.85;100.00;56815.28;5113936;28;20565;-59
2022/07/19 00:36:03;;;;;;;7.47;3.63;;;;;;;-143.85;100.00;56815.28;5113689;28;20051;-59
2022/07/19 00:38:32;;;;;;;6.18;4.10;;;;;;;-143.85;100.00;56815.28;5113851;28;20047;-59
2022/07/19 00:41:09;;;;;;;5.57;3.53;;;;;;;-143.85;100.00;56815.28;5111723;28;20555;-59
2022/07/19 00:43:40;;;;;;;7.63;4.43;;;;;;;-143.85;100.00;56815.28;5113538;28;20043;-59
2022/07/19 00:46:15;;;;;;;5.22;3.20;;;;;;;-143.85;100.00;56815.28;5113064;28;20058;-59
2022/07/19 00:48:46;;;;;;;5.88;3.38;;;;;;;-143.85;100.00;56815.28;5112644;28;20047;-57
2022/07/19 00:51:17;;;;;;;7.35;3.50;;;;;;;-143.85;100.00;56815.28;5112773;28;20058;-59
2022/07/19 00:53:48;;;;;;;8.82;3.13;;;;;;;-143.85;100.00;56815.28;5113338;28;20040;-58
2022/07/19 00:56:18;;;;;;;6.15;3.72;;;;;;;-143.85;100.00;56815.28;5113668;27;20230;-59
2022/07/19 00:58:49;;;;;;;8.57;3.83;;;;;;;-143.85;100.00;56815.28;5112687;28;20487;-59
2022/07/19 01:01:16;;;;;;;5.72;3.47;;;;;;;-143.85;100.00;56815.28;5113465;28;20078;-58
2022/07/19 01:03:48;;;;;;;5.60;3.40;;;;;;;-143.85;100.00;56815.28;5113151;28;20070;-59
2022/07/19 01:06:15;;;;;;;6.20;3.13;;;;;;;-143.85;100.00;56815.28;5113298;28;20047;-58
2022/07/19 01:08:42;;;;;;;4.93;3.40;;;;;;;-143.85;100.00;56815.28;5112171;28;20501;-58
2022/07/19 01:11:12;;;;;;;6.93;3.80;;;;;;;-143.85;100.00;56815.28;5112572;28;20062;-60
2022/07/19 01:13:40;;;;;;;5.70;3.80;;;;;;;-143.85;100.00;56815.28;5112417;28;20269;-59
2022/07/19 01:16:11;;;;;;;5.68;3.95;;;;;;;-143.85;100.00;56815.28;5112844;28;20477;-59
2022/07/19 01:18:38;;;;;;;7.07;4.10;;;;;;;-143.85;100.00;56815.28;5113285;28;20048;-59
2022/07/19 01:21:08;;;;;;;10.15;5.05;;;;;;;-143.85;100.00;56815.28;5112936;28;20534;-59
2022/07/19 01:23:40;;;;;;;8.95;5.05;;;;;;;-143.85;100.00;56815.28;5112445;28;20048;-59
2022/07/19 01:26:17;;;;;;;8.68;4.75;;;;;;;-143.85;100.00;56815.28;5113219;28;20134;-59
2022/07/19 01:28:49;;;;;;;7.90;4.75;;;;;;;-143.85;100.00;56815.28;5111558;28;20059;-59
2022/07/19 01:31:18;;;;;;;11.35;4.60;;;;;;;-143.85;100.00;56815.28;5113071;28;20047;-59
2022/07/19 01:33:48;;;;;;;8.20;5.55;;;;;;;-143.85;100.00;56815.28;5113147;28;20058;-59
2022/07/19 01:36:24;;;;;;;9.15;5.47;;;;;;;-143.85;100.00;56815.28;5113052;28;20055;-59
2022/07/19 01:38:54;;;;;;;8.40;5.13;;;;;;;-143.85;100.00;56815.28;5125656;27;20047;-59
2022/07/19 01:41:22;;;;;;;7.68;4.10;;;;;;;-143.85;100.00;56815.28;5133663;27;20058;-58
2022/07/19 01:43:48;;;;;;;4.97;3.30;;;;;;;-143.85;100.00;56815.28;5092222;28;20052;-59
2022/07/19 01:46:16;;;;;;;7.13;3.72;;;;;;;-143.85;100.00;56815.28;5088307;28;20051;-58
2022/07/19 01:48:44;;;;;;;5.47;3.90;;;;;;;-143.85;100.00;56815.28;5087388;28;20519;-59
2022/07/19 01:51:13;;;;;;;5.80;3.72;;;;;;;-143.85;100.00;56815.28;5093376;28;20066;-59
2022/07/19 01:53:41;;;;;;;6.20;3.40;;;;;;;-143.85;100.00;56815.28;5112666;28;20055;-59
2022/07/19 01:56:25;;;;;;;7.10;3.78;;;;;;;-143.85;100.00;56815.28;5112373;28;20048;-58
2022/07/19 01:58:55;;;;;;;5.30;3.33;;;;;;;-143.85;100.00;56815.28;5112393;28;20039;-58
2022/07/19 02:01:25;;;;;;;6.05;3.85;;;;;;;-143.85;100.00;56815.28;5112146;28;20051;-58
2022/07/19 02:03:55;;;;;;;6.15;4.10;;;;;;;-143.85;100.00;56815.28;5112031;28;20039;-58
2022/07/19 02:06:23;;;;;;;5.38;3.58;;;;;;;-143.85;100.00;56815.28;5112720;28;20116;-58
2022/07/19 02:08:50;;;;;;;6.68;3.60;;;;;;;-143.85;100.00;56815.28;5112217;28;20055;-58
2022/07/19 02:11:36;;;;;;;5.93;3.33;;;;;;;-143.85;100.00;56815.28;5111955;28;20055;-57
2022/07/19 02:14:05;;;;;;;6.43;3.75;;;;;;;-143.85;100.00;56815.28;5112218;28;20048;-58
2022/07/19 02:16:33;;;;;;;5.05;3.60;;;;;;;-143.85;100.00;56815.28;5111405;28;20130;-58
2022/07/19 02:18:59;;;;;;;6.03;3.53;;;;;;;-143.85;100.00;56815.28;5112130;28;20051;-57
2022/07/19 02:21:28;;;;;;;5.40;3.50;;;;;;;-143.85;100.00;56815.28;5111776;28;20066;-57
2022/07/19 02:23:58;;;;;;;7.20;3.85;;;;;;;-143.85;100.00;56815.28;5111785;27;20104;-58
2022/07/19 02:26:38;;;;;;;5.47;3.53;;;;;;;-143.85;100.00;56815.28;5111662;28;20341;-58
2022/07/19 02:29:04;;;;;;;7.05;3.78;;;;;;;-143.85;100.00;56815.28;5111680;28;20043;-58
2022/07/19 02:31:31;;;;;;;4.82;3.35;;;;;;;-143.85;100.00;56815.28;5111386;28;20054;-58
2022/07/19 02:33:57;;;;;;;6.20;3.60;;;;;;;-143.85;100.00;56815.28;5111294;28;20047;-58
2022/07/19 02:36:24;;;;;;;5.40;3.60;;;;;;;-143.85;100.00;56815.28;5111128;28;20051;-57
2022/07/19 02:38:51;;;;;;;5.47;3.83;;;;;;;-143.85;100.00;56815.28;5124117;27;20062;-58
2022/07/19 02:41:20;;;;;;;6.72;3.72;;;;;;;-143.85;100.00;56815.28;5131854;27;20062;-59
2022/07/19 02:43:51;;;;;;;6.30;3.67;;;;;;;-143.85;100.00;56815.28;5111335;28;20061;-56
2022/07/19 02:46:18;;;;;;;4.93;3.47;;;;;;;-143.85;100.00;56815.28;5110380;28;20052;-59
2022/07/19 02:48:47;;;;;;;6.03;3.88;;;;;;;-143.85;100.00;56815.28;5110239;28;20043;-56
2022/07/19 02:51:21;;;;;;;5.68;3.50;;;;;;;-143.85;100.00;56815.28;5109943;28;20066;-57
2022/07/19 02:53:52;;;;;;;7.65;3.72;;;;;;;-143.85;100.00;56815.28;5110916;28;20043;-57
2022/07/19 02:56:21;;;;;;;5.15;3.25;;;;;;;-143.85;100.00;56815.28;5110673;28;20112;-57
2022/07/19 02:58:52;;;;;;;5.60;3.38;;;;;;;-143.85;100.00;56815.28;5110568;28;20047;-57
2022/07/19 03:01:19;;;;;;;7.00;3.72;;;;;;;-143.85;100.00;56815.28;5110194;28;20138;-57
2022/07/19 03:03:49;;;;;;;7.78;3.88;;;;;;;-143.85;100.00;56815.28;5110633;28;20075;-58
2022/07/19 03:06:23;;;;;;;5.28;3.22;;;;;;;-143.85;100.00;56815.28;5111160;28;20057;-55
2022/07/19 03:08:52;;;;;;;6.75;3.50;;;;;;;-143.85;100.00;56815.28;5111132;28;20043;-58
2022/07/19 03:11:30;;;;;;;6.85;4.05;;;;;;;-143.85;100.00;56815.28;5111024;28;20097;-57
2022/07/19 03:14:08;;;;;;;5.40;3.90;;;;;;;-143.85;100.00;56815.28;5110643;28;20083;-57
2022/07/19 03:16:36;;;;;;;5.70;4.05;;;;;;;-143.85;100.00;56815.28;5110562;28;20355;-58
2022/07/19 03:19:12;;;;;;;6.20;3.65;;;;;;;-143.85;100.00;56815.28;5110929;28;20063;-58
2022/07/19 03:21:43;;;;;;;7.50;3.88;;;;;;;-143.85;100.00;56815.28;5110380;28;20169;-58
2022/07/19 03:24:11;;;;;;;7.97;3.75;;;;;;;-143.85;100.00;56815.28;5110144;28;20134;-55
2022/07/19 03:26:38;;;;;;;6.10;3.92;;;;;;;-143.85;100.00;56815.28;5110540;28;20500;-56
2022/07/19 03:29:09;;;;;;;5.65;3.75;;;;;;;-143.85;100.00;56815.28;5109755;28;20050;-57
2022/07/19 03:31:38;;;;;;;5.72;3.45;;;;;;;-143.85;100.00;56815.28;5110727;28;20097;-57
2022/07/19 03:34:05;;;;;;;7.93;4.20;;;;;;;-143.85;100.00;56815.28;5110652;28;20071;-57
2022/07/19 03:36:32;;;;;;;5.68;3.70;;;;;;;-143.85;100.00;56815.28;5110470;28;20052;-56
2022/07/19 03:39:02;;;;;;;7.22;4.20;;;;;;;-143.85;100.00;56815.28;5110723;28;20133;-56
2022/07/19 03:41:29;;;;;;;6.30;3.58;;;;;;;-143.85;100.00;56815.28;5110089;28;20647;-57
2022/07/19 03:43:59;;;;;;;5.47;3.88;;;;;;;-143.85;100.00;56815.28;5109100;28;20142;-54
2022/07/19 03:46:30;;;;;;;8.23;3.90;;;;;;;-143.85;100.00;56815.28;5110490;28;20043;-57
2022/07/19 03:49:05;;;;;;;6.72;4.38;;;;;;;-143.85;100.00;56815.28;5110106;28;20057;-58
2022/07/19 03:51:35;;;;;;;5.47;3.50;;;;;;;-143.85;100.00;56815.28;5110149;28;20184;-58
2022/07/19 03:54:04;;;;;;;5.07;3.70;;;;;;;-143.85;100.00;56815.28;5110422;28;20519;-57
2022/07/19 03:56:32;;;;;;;6.05;3.92;;;;;;;-143.85;100.00;56815.28;5110197;28;20129;-57
2022/07/19 03:58:59;;;;;;;7.47;3.83;;;;;;;-143.85;100.00;56815.28;5112050;28;20040;-57
2022/07/19 04:01:27;;;;;;;6.25;4.28;;;;;;;-143.85;100.00;56815.28;5113637;28;20140;-58
2022/07/19 04:04:10;;;;;;;5.22;3.45;;;;;;;-143.85;100.00;56815.28;5114492;28;20051;-58
2022/07/19 04:06:39;;;;;;;6.35;3.60;;;;;;;-143.85;100.00;56815.28;5114416;28;20464;-58
2022/07/19 04:09:07;;;;;;;6.57;3.60;;;;;;;-143.85;100.00;56815.28;5114323;28;20545;-57
2022/07/19 04:11:40;;;;;;;8.15;4.28;;;;;;;-143.85;100.00;56815.28;5114478;28;20134;-57
2022/07/19 04:14:08;;;;;;;9.00;4.00;;;;;;;-143.85;100.00;56815.28;5112045;28;20043;-57
2022/07/19 04:16:37;;;;;;;7.00;4.03;;;;;;;-143.85;100.00;56815.28;5114434;28;20062;-58
2022/07/19 04:19:08;;;;;;;5.80;4.07;;;;;;;-143.85;100.00;56815.28;5114294;28;20047;-58
2022/07/19 04:21:36;;;;;;;9.13;4.10;;;;;;;-143.85;100.00;56815.28;5113955;28;20059;-58
2022/07/19 04:24:04;;;;;;;7.47;4.68;;;;;;;-143.85;100.00;56815.28;5113609;28;20184;-58
2022/07/19 04:26:44;;;;;;;5.60;3.92;;;;;;;-143.85;100.00;56815.28;5114426;28;20079;-58
2022/07/19 04:29:15;;;;;;;6.38;3.97;;;;;;;-143.85;100.00;56815.28;5113808;27;20071;-57
2022/07/19 04:31:42;;;;;;;6.15;3.60;;;;;;;-143.85;100.00;56815.28;5114053;28;20155;-58
2022/07/19 04:34:12;;;;;;;9.38;3.85;;;;;;;-143.85;100.00;56815.28;5113212;28;20052;-57
2022/07/19 04:36:42;;;;;;;7.13;3.92;;;;;;;-143.85;100.00;56815.28;5113442;28;20051;-58
2022/07/19 04:39:09;;;;;;;7.00;4.03;;;;;;;-143.85;100.00;56815.28;5114222;28;20078;-57
2022/07/19 04:41:37;;;;;;;9.02;4.13;;;;;;;-143.85;100.00;56815.28;5112651;28;20372;-57
2022/07/19 04:44:05;;;;;;;10.57;4.57;;;;;;;-143.85;100.00;56815.28;5113920;28;20048;-57
2022/07/19 04:46:33;;;;;;;7.13;4.32;;;;;;;-143.85;100.00;56815.28;5113751;28;20040;-57
2022/07/19 04:49:01;;;;;;;7.95;4.15;;;;;;;-143.85;100.00;56815.28;5113219;28;20431;-57
2022/07/19 04:51:34;;;;;;;9.02;4.45;;;;;;;-143.85;100.00;56815.28;5113112;28;20130;-56
2022/07/19 04:54:04;;;;;;;6.07;4.07;;;;;;;-143.85;100.00;56815.28;5113927;28;20051;-58
2022/07/19 04:59:21;;;;;;;6.55;3.80;;;;;;;-143.85;100.00;56815.28;5113442;28;20046;-56
2022/07/19 05:01:49;;;;;;;13.13;4.03;;;;;;;-143.85;100.00;56815.28;5113447;28;20063;-57
2022/07/19 05:04:18;;;;;;;8.02;4.10;;;;;;;-143.85;100.00;56815.28;5112858;28;20059;-57
2022/07/19 05:07:00;;;;;;;6.63;4.10;;;;;;;-143.85;100.00;56815.28;5112454;28;20056;-57
2022/07/19 05:09:32;;;;;;;7.95;4.00;;;;;;;-143.85;100.00;56815.28;5111881;28;20061;-56
2022/07/19 05:12:05;;;;;;;7.38;4.28;;;;;;;-143.85;100.00;56815.28;5112711;28;20055;-57
2022/07/19 05:14:36;;;;;;;6.70;3.85;;;;;;;-143.85;100.00;56815.28;5112720;27;20051;-57
2022/07/19 05:17:03;;;;;;;7.22;3.78;;;;;;;-143.85;100.00;56815.28;5113091;28;20448;-57
2022/07/19 05:19:30;;;;;;;13.18;4.07;;;;;;;-143.85;100.00;56815.28;5112054;28;20052;-57
2022/07/19 05:22:00;;;;;;;9.65;4.25;;;;;;;-143.85;100.00;56815.28;5112997;27;20480;-57
2022/07/19 05:24:31;;;;;;;7.75;3.60;;;;;;;-143.85;100.00;56815.28;5113046;28;20047;-57
2022/07/19 05:27:01;;;;;;;5.40;3.70;;;;;;;-143.85;100.00;56815.28;5112044;28;20051;-56
2022/07/19 05:29:31;;;;;;;7.57;3.80;;;;;;;-143.85;100.00;56815.28;5112028;28;20134;-56
2022/07/19 05:32:08;;;;;;;10.35;4.50;;;;;;;-143.85;100.00;56815.28;5111953;28;20603;-58
2022/07/19 05:34:36;;;;;;;8.73;3.60;;;;;;;-143.85;100.00;56815.28;5112168;28;20112;-57
2022/07/19 05:37:05;;;;;;;8.57;4.00;;;;;;;-143.85;100.00;56815.28;5112655;28;20066;-58
2022/07/19 05:39:33;;;;;;;7.53;3.53;;;;;;;-143.85;100.00;56815.28;5112354;28;20048;-58
2022/07/19 05:42:01;;;;;;;6.30;3.90;;;;;;;-143.85;100.00;56815.28;5112357;28;20058;-58
2022/07/19 05:44:27;;;;;;;7.97;3.58;;;;;;;-143.85;100.00;56815.28;5112498;28;20052;-57
2022/07/19 05:46:54;;;;;;;7.55;4.05;;;;;;;-143.85;100.00;56815.28;5111860;28;20081;-56
2022/07/19 05:49:23;;;;;;;8.15;4.47;;;;;;;-143.85;100.00;56815.28;5112386;28;20044;-57
2022/07/19 05:51:50;;;;;;;6.85;3.83;;;;;;;-143.85;100.00;56815.28;5111263;28;20056;-57
2022/07/19 05:54:20;;;;;;;8.60;4.30;;;;;;;-143.85;100.00;56815.28;5111350;28;20047;-57
2022/07/19 05:56:49;;;;;;;7.80;3.70;;;;;;;-143.85;100.00;56815.28;5112419;28;20083;-57
2022/07/19 05:59:20;;;;;;;7.75;3.47;;;;;;;-143.85;100.00;56815.28;5112263;28;20117;-55
2022/07/19 06:01:49;;;;;;;7.78;3.92;;;;;;;-143.85;100.00;56815.28;5112428;28;20066;-54
2022/07/19 06:04:18;;;;;;;8.68;3.75;;;;;;;-143.85;100.00;56815.28;5110724;28;20052;-58
2022/07/19 06:06:46;;;;;;;7.80;3.58;;;;;;;-143.85;100.00;56815.28;5111675;28;20048;-57
2022/07/19 06:09:22;;;;;;;7.20;3.97;;;;;;;-143.85;100.00;56815.28;5111947;28;20138;-57
2022/07/19 06:11:57;;;;;;;10.13;3.95;;;;;;;-143.85;100.00;56815.28;5112114;28;20049;-57
2022/07/19 06:14:25;;;;;;;8.88;3.97;;;;;;;-143.85;100.00;56815.28;5112376;28;20387;-56
2022/07/19 06:16:56;;;;;;;8.27;3.58;;;;;;;-143.85;100.00;56815.28;5111929;28;20065;-56
2022/07/19 06:19:23;;;;;;;8.68;4.05;;;;;;;-143.85;100.00;56815.28;5111420;28;20043;-56
2022/07/19 06:21:50;;;;;;;11.07;4.30;;;;;;;-143.85;100.00;56815.28;5110220;28;20051;-55
2022/07/19 06:24:18;;;;;;;6.80;3.85;;;;;;;-143.85;100.00;56815.28;5108698;27;20058;-56
2022/07/19 06:26:45;;;;;;;5.60;3.45;;;;;;;-143.85;100.00;56815.28;5112031;28;20087;-56
2022/07/19 06:29:27;;;;;;;13.75;3.83;;;;;;;-143.85;100.00;56815.28;5111374;28;20635;-58
2022/07/19 06:31:58;;;;;;;7.88;4.10;;;;;;;-143.85;100.00;56815.28;5111776;28;20062;-56
2022/07/19 06:34:28;;;;;;;5.88;3.67;;;;;;;-143.85;100.00;56815.28;5112005;28;20050;-56
2022/07/19 06:36:55;;;;;;;7.63;3.90;;;;;;;-143.85;100.00;56815.28;5111624;28;20077;-56
2022/07/19 06:39:32;;;;;;;8.23;3.88;;;;;;;-143.85;100.00;56815.28;5111787;28;20067;-57
2022/07/19 06:42:09;;;;;;;9.95;4.20;;;;;;;-143.85;100.00;56815.28;5111212;28;20600;-57
2022/07/19 06:44:37;;;;;;;6.03;3.65;;;;;;;-143.85;100.00;56815.28;5111329;28;20047;-56
2022/07/19 06:47:05;;;;;;;5.72;3.58;;;;;;;-143.85;100.00;56815.28;5111017;28;20044;-58
2022/07/19 06:49:42;;;;;;;10.48;4.53;;;;;;;-143.85;100.00;56815.28;5111421;28;20054;-57
2022/07/19 06:52:13;;;;;;;5.75;3.72;;;;;;;-143.85;100.00;56815.28;5111163;28;20052;-58
2022/07/19 06:54:40;;;;;;;8.75;4.13;;;;;;;-143.85;100.00;56815.28;5111625;28;20055;-57
2022/07/19 06:57:09;;;;;;;16.33;4.53;;;;;;;-143.85;100.00;56815.28;5111109;28;20170;-56
2022/07/19 06:59:49;;;;;;;12.15;4.03;;;;;;;-143.85;100.00;56815.28;5111196;28;20047;-57
2022/07/19 07:02:24;;;;;;;6.03;3.30;;;;;;;-143.85;100.00;56815.28;5110624;28;20051;-56
2022/07/19 07:07:37;;;;;;;9.50;3.85;;;;;;;-143.85;100.00;56815.28;5111030;28;20066;-56
2022/07/19 07:10:10;;;;;;;13.38;3.88;;;;;;;-143.85;100.00;56815.28;5110733;28;20047;-56
2022/07/19 07:12:38;;;;;;;5.78;4.10;;;;;;;-143.85;100.00;56815.28;5109275;28;20047;-54
2022/07/19 07:15:10;;;;;;;9.00;3.50;;;;;;;-143.85;100.00;56815.28;5110544;27;20643;-57
2022/07/19 07:17:42;;;;;;;8.40;4.20;;;;;;;-143.85;100.00;56815.28;5110796;28;20060;-57
2022/07/19 07:20:17;;;;;;;6.78;4.10;;;;;;;-143.85;100.00;56815.28;5112201;28;20055;-55
2022/07/19 07:22:53;;;;;;;11.60;4.55;;;;;;;-143.85;100.00;56815.28;5120461;27;20051;-58
2022/07/19 07:25:19;;;;;;;13.35;4.57;;;;;;;-143.85;100.00;56815.28;5132328;27;20444;-56
2022/07/19 07:27:49;;;;;;;16.02;5.20;;;;;;;-143.85;100.00;56815.28;5130766;27;20450;-58
2022/07/19 07:30:19;;;;;;;13.25;4.05;;;;;;;-143.85;100.00;56815.28;5132224;27;20043;-58
2022/07/19 07:32:46;;;;;;;6.95;3.78;;;;;;;-143.85;100.00;56815.28;5131549;27;20528;-58
2022/07/19 07:35:13;;;;;;;7.15;4.35;;;;;;;-143.85;100.00;56815.28;5130197;27;20495;-58
2022/07/19 07:37:42;;;;;;;6.43;4.10;;;;;;;-143.85;100.00;56815.28;5127040;27;20043;-58
2022/07/19 07:40:18;;;;;;;9.27;4.18;;;;;;;-143.85;100.00;56815.28;5111824;28;20055;-57
2022/07/19 07:42:45;;;;;;;8.02;4.30;;;;;;;-143.85;100.00;56815.28;5111538;28;20777;-57
2022/07/19 07:45:15;;;;;;;7.22;4.20;;;;;;;-143.85;100.00;56815.28;5117292;27;20054;-57
2022/07/19 07:47:51;;;;;;;6.85;3.88;;;;;;;-143.85;100.00;56815.28;5117803;28;20059;-57
2022/07/19 07:50:23;;;;;;;10.35;4.50;;;;;;;-143.85;100.00;56815.28;5114078;28;20052;-54
2022/07/19 07:52:51;;;;;;;6.22;3.90;;;;;;;-143.85;100.00;56815.28;5110755;28;20531;-58
2022/07/19 07:55:21;;;;;;;8.60;4.45;;;;;;;-143.85;100.00;56815.28;5118043;28;20051;-58
2022/07/19 07:57:58;;;;;;;8.75;3.83;;;;;;;-143.85;100.00;56815.28;5116749;27;20052;-58
2022/07/19 08:00:27;;;;;;;14.30;4.50;;;;;;;-143.85;100.00;56815.28;5128179;28;20676;-57
2022/07/19 08:02:57;;;;;;;10.40;3.75;;;;;;;-143.85;100.00;56815.28;5117045;28;20051;-58
2022/07/19 08:05:29;;;;;;;6.97;4.00;;;;;;;-143.85;100.00;56815.28;5122009;27;20056;-58
2022/07/19 08:08:01;;;;;;;11.10;4.07;;;;;;;-143.85;100.00;56815.28;5110223;28;20075;-57
2022/07/19 08:10:35;;;;;;;14.25;4.60;;;;;;;-143.85;100.00;56815.28;5109970;28;20484;-58
2022/07/19 08:13:02;;;;;;;16.20;5.03;;;;;;;-143.85;100.00;56815.28;5119722;28;20082;-57
2022/07/19 08:15:32;;;;;;;6.07;4.07;;;;;;;-143.85;100.00;56815.28;5111682;28;20082;-58
2022/07/19 08:18:06;;;;;;;7.22;3.90;;;;;;;-143.85;100.00;56815.28;5130391;27;20046;-56
2022/07/19 08:20:35;;;;;;;6.63;4.05;;;;;;;-143.85;100.00;56815.28;5120804;27;20075;-56
2022/07/19 08:23:07;;;;;;;8.18;3.95;;;;;;;-143.85;100.00;56815.28;5104708;28;20048;-56
2022/07/19 08:25:39;;;;;;;7.20;4.13;;;;;;;-143.85;100.00;56815.28;5101656;28;20052;-56
2022/07/19 08:28:07;;;;;;;11.35;4.10;;;;;;;-143.85;100.00;56815.28;5102012;28;20044;-57
2022/07/19 08:30:42;;;;;;;5.22;3.72;;;;;;;-143.85;100.00;56815.28;5106821;28;20079;-57
2022/07/19 08:33:20;;;;;;;8.35;3.90;;;;;;;-143.85;100.00;56815.28;5110171;28;20051;-58
2022/07/19 08:35:48;;;;;;;10.45;3.95;;;;;;;-143.85;100.00;56815.28;5111033;28;20056;-57
2022/07/19 08:38:25;;;;;;;9.50;4.00;;;;;;;-143.85;100.00;56815.28;5101722;28;20140;-56
2022/07/19 08:40:53;;;;;;;12.70;4.30;;;;;;;-143.85;100.00;56815.28;5112166;28;20490;-55
2022/07/19 08:43:22;;;;;;;9.20;4.10;;;;;;;-143.85;100.00;56815.28;5106352;28;20054;-57
2022/07/19 08:45:50;;;;;;;15.02;4.15;;;;;;;-143.85;100.00;56815.28;5125395;27;20051;-57
2022/07/19 08:48:26;;;;;;;5.95;3.60;;;;;;;-143.85;100.00;56815.28;5116907;27;20055;-57
2022/07/19 08:50:54;;;;;;;6.10;3.50;;;;;;;-143.85;100.00;56815.28;5131538;27;20056;-56
2022/07/19 08:53:22;;;;;;;7.30;3.35;;;;;;;-143.85;100.00;56815.28;5113874;28;20048;-57
2022/07/19 08:55:56;;;;;;;9.48;3.72;;;;;;;-143.85;100.00;56815.28;5113854;28;20048;-57
2022/07/19 08:58:22;;;;;;;;;;;;;;;-143.85;100.00;56815.28;5115079;28;20047;-58
2022/07/19 09:00:49;;;;;;;6.97;3.38;;;;;;;-143.85;100.00;56815.28;5114649;28;19992;-58
2022/07/19 09:03:20;;;;;;;6.10;3.60;;;;;;;-143.85;100.00;56815.28;5113833;28;20050;-58
2022/07/19 09:06:06;;;;;;;14.75;4.35;;;;;;;-143.85;100.00;56815.28;5114533;28;20055;-57
2022/07/19 09:08:45;;;;;;;12.63;4.18;;;;;;;-143.85;100.00;56815.28;5109583;28;20062;-58
2022/07/19 09:11:16;;;;;;;7.15;3.72;;;;;;;-143.85;100.00;56815.28;5096772;28;20040;-57
2022/07/19 09:13:50;;;;;;;15.50;4.85;;;;;;;-143.85;100.00;56815.28;5098859;27;20087;-57
2022/07/19 09:16:19;;;;;;;6.60;3.63;;;;;;;-143.85;100.00;56815.28;5106758;28;20043;-58
2022/07/19 09:18:51;;;;;;;7.22;3.53;;;;;;;-143.85;100.00;56815.28;5109900;28;20087;-57
2022/07/19 09:21:19;;;;;;;6.63;3.40;;;;;;;-143.85;100.00;56815.28;5110653;28;20058;-56
2022/07/19 09:23:46;;;;;;;16.10;4.45;;;;;;;-143.85;100.00;56815.28;5111577;28;20264;-58
2022/07/19 09:26:13;;;;;;;23.45;5.00;;;;;;;-143.85;100.00;56815.28;5110999;28;20051;-57
2022/07/19 09:28:41;;;;;;;8.90;3.58;;;;;;;-143.85;100.00;56815.28;5111694;28;20051;-56
2022/07/19 09:31:09;;;;;;;6.95;3.40;;;;;;;-143.85;100.00;56815.28;5110880;28;20508;-56
2022/07/19 09:33:46;;;;;;;12.57;4.10;;;;;;;-143.85;100.00;56815.28;5111537;28;20366;-54
2022/07/19 09:36:28;;;;;;;8.57;3.97;;;;;;;-143.85;100.00;56815.28;5110935;28;20058;-55
2022/07/19 09:38:56;;;;;;;7.95;3.72;;;;;;;-143.85;100.00;56815.28;5125136;27;20043;-56
2022/07/19 09:41:26;;;;;;;11.88;3.97;;;;;;;-143.85;100.00;56815.28;5132264;27;20108;-57
2022/07/19 09:43:54;;;;;;;4.95;3.25;;;;;;;-143.85;100.00;56815.28;5111711;28;20086;-56
2022/07/19 09:46:29;;;;;;;8.18;3.58;;;;;;;-143.85;100.00;56815.28;5111206;28;20051;-57
2022/07/19 09:49:05;;;;;;;11.63;3.55;;;;;;;-143.85;100.00;56815.28;5112277;28;20698;-58
2022/07/19 09:51:40;;;;;;;9.65;3.38;;;;;;;-143.85;100.00;56815.28;5111343;28;20105;-58
2022/07/19 09:54:12;;;;;;;5.97;3.22;;;;;;;-143.85;100.00;56815.28;5111889;28;20055;-57
2022/07/19 09:56:43;;;;;;;6.80;3.38;;;;;;;-143.85;100.00;56815.28;5111951;28;20051;-58
2022/07/19 09:59:12;;;;;;;12.90;3.78;;;;;;;-143.85;100.00;56815.28;5111898;28;20051;-58
2022/07/19 10:01:41;;;;;;;9.93;3.50;;;;;;;-143.85;100.00;56815.28;5113163;28;20087;-58
2022/07/19 10:04:09;;;;;;;6.68;3.42;;;;;;;-143.85;100.00;56815.28;5113293;28;20051;-58
2022/07/19 10:06:41;;;;;;;9.50;3.47;;;;;;;-143.85;100.00;56815.28;5112768;28;20051;-58
2022/07/19 10:09:10;;;;;;;8.70;3.10;;;;;;;-143.85;100.00;56815.28;5112281;28;20047;-57
2022/07/19 10:11:39;;;;;;;8.32;3.25;;;;;;;-143.85;100.00;56815.28;5111451;28;20070;-56
2022/07/19 10:14:08;;;;;;;4.85;3.53;;;;;;;-143.85;100.00;56815.28;5111818;28;20133;-57
2022/07/19 10:17:04;;;;;;;24.42;4.53;;;;;;;-143.85;100.00;56815.28;5111727;28;20051;-57
2022/07/19 10:19:42;;;;;;;10.02;3.22;;;;;;;-143.85;100.00;56815.28;5111889;27;20048;-58
2022/07/19 10:22:15;;;;;;;12.70;3.28;;;;;;;-143.85;100.00;56815.28;5111319;28;20075;-58
2022/07/19 10:24:52;;;;;;;7.65;3.60;;;;;;;-143.85;100.00;56815.28;5111686;27;20050;-58
2022/07/19 10:27:37;;;;;;;6.75;2.85;;;;;;;-143.85;100.00;56815.28;5111751;28;20473;-58
2022/07/19 10:30:27;;;;;;;5.03;2.58;;;;;;;-143.85;100.00;56815.28;5110583;28;20050;-58
2022/07/19 10:32:57;;;;;;;5.43;3.08;;;;;;;-143.85;100.00;56815.28;5111202;28;20050;-58
2022/07/19 10:35:30;;;;;;;7.55;2.72;;;;;;;-143.85;100.00;56815.28;5111382;28;20070;-57
2022/07/19 10:38:12;;;;;;;5.07;2.50;;;;;;;-143.85;100.00;56815.28;5111418;28;20140;-58
2022/07/19 10:40:41;;;;;;;4.80;2.65;;;;;;;-143.85;100.00;56815.28;5111081;28;20546;-58
2022/07/19 10:43:15;;;;;;;5.50;3.20;;;;;;;-143.85;100.00;56815.28;5111100;28;20074;-58
2022/07/19 10:46:09;;;;;;;4.10;2.60;;;;;;;-143.85;100.00;56815.28;5110842;28;20051;-58
2022/07/19 10:48:38;;;;;;;8.65;3.13;;;;;;;-143.85;100.00;56815.28;5111394;28;20054;-58
2022/07/19 10:51:07;;;;;;;7.95;3.45;;;;;;;-143.85;100.00;56815.28;5110259;28;20544;-57
2022/07/19 10:54:02;;;;;;;6.70;3.00;;;;;;;-143.85;100.00;56815.28;5111942;28;20047;-57
2022/07/19 10:56:59;;;;;;;5.32;3.17;;;;;;;-143.85;100.00;56815.28;5096749;28;20051;-57
2022/07/19 10:59:42;;;;;;;11.32;4.13;;;;;;;-143.85;100.00;56815.28;5111893;28;20055;-56
2022/07/19 11:02:27;;;;;;;7.05;3.42;;;;;;;-143.85;100.00;56815.28;5111961;28;20047;-58
2022/07/19 11:04:59;;;;;;;13.82;4.65;;;;;;;-143.85;100.00;56815.28;5111139;28;20609;-58
2022/07/19 11:07:28;;;;;;;7.07;3.63;;;;;;;-143.85;100.00;56815.28;5108343;28;20350;-57
2022/07/19 11:10:02;;;;;;;12.07;3.80;;;;;;;-143.85;100.00;56815.28;5110509;28;20518;-58
2022/07/19 11:12:37;;;;;;;7.85;3.75;;;;;;;-143.85;100.00;56815.28;5111404;28;20136;-58
2022/07/19 11:15:08;;;;;;;9.25;4.10;;;;;;;-143.85;100.00;56815.28;5111330;28;20439;-58
2022/07/19 11:17:36;;;;;;;5.80;3.13;;;;;;;-143.85;100.00;56815.28;5097230;28;20044;-58
2022/07/19 11:20:17;;;;;;;7.13;3.40;;;;;;;-143.85;100.00;56815.28;5102086;27;20048;-57
2022/07/19 11:22:49;;;;;;;4.85;3.08;;;;;;;-143.85;100.00;56815.28;5097688;28;20048;-58
2022/07/19 11:25:27;;;;;;;4.35;3.05;;;;;;;-143.85;100.00;56815.28;5091235;28;20044;-57
2022/07/19 11:27:54;;;;;;;6.18;3.13;;;;;;;-143.85;100.00;56815.28;5096810;28;20135;-56
2022/07/19 11:30:25;;;;;;;5.78;3.65;;;;;;;-143.85;100.00;56815.28;5090850;28;20052;-57
2022/07/19 11:32:53;;;;;;;13.05;4.03;;;;;;;-143.85;100.00;56815.28;5109386;28;20047;-55